Time;durP1;ratioP1;P1;durP2;ratioP2;P2;SDS_P1;SDS_P2;PMS_P1;PMS_P2;Temp;Humidity;BMP_temperature;BMP_pressure;BME280_temperature;BME280_humidity;BME280_pressure;Samples;Min_cycle;Max_cycle;Signal;HPM_P1;HPM_P2
2023/12/24 00:00:27;;;;;;;7.45;4.30;;;;;;;6.96;68.17;93865.22;4200885;28;20052;-67
2023/12/24 00:02:29;;;;;;;6.97;3.25;;;;;;;7.03;67.32;93884.44;4198298;28;20101;-68
2023/12/24 00:04:31;;;;;;;5.97;3.75;;;;;;;7.23;66.96;93869.38;4180058;28;20056;-70
2023/12/24 00:06:33;;;;;;;7.82;3.55;;;;;;;7.48;66.54;93869.41;4201548;28;20048;-69
2023/12/24 00:08:35;;;;;;;8.27;3.38;;;;;;;7.65;65.72;93863.25;4200549;28;20499;-67
2023/12/24 00:10:37;;;;;;;6.95;3.55;;;;;;;7.84;64.85;93869.13;4196615;28;20086;-68
2023/12/24 00:12:39;;;;;;;7.95;3.25;;;;;;;7.98;64.79;93873.72;4197520;28;20048;-67
2023/12/24 00:14:41;;;;;;;6.47;2.80;;;;;;;8.17;63.39;93870.75;4195467;28;20052;-66
2023/12/24 00:16:42;;;;;;;5.55;2.70;;;;;;;8.29;63.02;93883.47;4204284;28;20123;-66
2023/12/24 00:18:44;;;;;;;9.32;3.20;;;;;;;8.39;62.73;93881.50;4201591;28;20041;-67
2023/12/24 00:20:46;;;;;;;8.45;3.40;;;;;;;8.52;62.33;93879.22;4199531;28;20428;-68
2023/12/24 00:23:05;;;;;;;6.30;3.25;;;;;;;8.59;62.09;93884.59;4207354;28;20127;-67
2023/12/24 00:25:07;;;;;;;7.85;3.03;;;;;;;8.73;61.49;93875.22;4204089;28;20466;-66
2023/12/24 00:27:09;;;;;;;9.32;2.83;;;;;;;8.77;61.18;93886.97;4205966;28;20129;-65
2023/12/24 00:29:11;;;;;;;4.82;2.55;;;;;;;8.90;61.23;93889.06;4188823;28;20075;-66
2023/12/24 00:31:13;;;;;;;3.95;2.70;;;;;;;9.02;59.68;93885.09;4210691;28;20043;-68
2023/12/24 00:33:14;;;;;;;10.48;2.72;;;;;;;9.10;60.60;93897.31;4206587;28;20063;-67
2023/12/24 00:35:16;;;;;;;7.53;3.00;;;;;;;9.16;59.84;93901.84;4198526;28;20059;-70
2023/12/24 00:37:18;;;;;;;7.75;2.70;;;;;;;9.19;59.35;93904.16;4200011;28;20105;-66
2023/12/24 00:39:20;;;;;;;7.60;2.60;;;;;;;9.24;59.25;93899.22;4199012;28;20048;-68
2023/12/24 00:41:22;;;;;;;5.50;2.45;;;;;;;9.31;59.17;93912.41;4198500;28;20488;-67
2023/12/24 00:43:24;;;;;;;7.43;2.30;;;;;;;9.40;58.04;93912.22;4211244;28;20127;-68
2023/12/24 00:45:25;;;;;;;6.63;2.40;;;;;;;9.47;58.15;93919.38;4207751;28;20052;-67
2023/12/24 00:47:27;;;;;;;6.47;2.13;;;;;;;9.55;57.71;93912.31;4205830;28;20292;-69
2023/12/24 00:49:29;;;;;;;7.97;2.40;;;;;;;9.61;56.80;93910.78;4209934;28;20044;-68
2023/12/24 00:51:31;;;;;;;4.78;1.95;;;;;;;9.67;56.18;93936.25;4197129;28;20052;-69
2023/12/24 00:53:33;;;;;;;3.97;1.98;;;;;;;9.72;55.91;93935.72;4177319;28;20053;-68
2023/12/24 00:55:35;;;;;;;5.68;2.38;;;;;;;9.75;55.47;93946.66;4185637;28;20114;-69
2023/12/24 00:57:40;;;;;;;9.32;2.53;;;;;;;9.76;55.91;93947.47;4209973;28;20059;-69
2023/12/24 00:59:41;;;;;;;5.00;1.98;;;;;;;9.78;55.44;93950.72;4198205;28;20044;-65
2023/12/24 01:01:43;;;;;;;3.80;1.95;;;;;;;9.71;55.02;93948.00;4204003;28;20132;-68
2023/12/24 01:03:45;;;;;;;7.50;1.80;;;;;;;9.68;54.79;93974.50;4210211;28;20065;-67
2023/12/24 01:05:47;;;;;;;4.72;1.95;;;;;;;9.70;54.40;93964.69;4208524;28;20553;-71
2023/12/24 01:07:49;;;;;;;5.68;1.70;;;;;;;9.64;54.49;93965.38;4211074;28;20052;-65
2023/12/24 01:09:51;;;;;;;5.93;1.75;;;;;;;9.59;54.55;93989.41;4202155;28;20155;-66
2023/12/24 01:11:53;;;;;;;3.92;1.73;;;;;;;9.58;54.18;93973.91;4205800;28;20044;-66
2023/12/24 01:13:54;;;;;;;6.90;2.28;;;;;;;9.47;54.90;93995.19;4210619;28;20048;-68
2023/12/24 01:15:56;;;;;;;5.00;1.98;;;;;;;9.47;55.36;93984.72;4203958;28;20453;-66
2023/12/24 01:17:58;;;;;;;3.30;1.90;;;;;;;9.58;55.42;93989.59;4195178;28;20370;-67
2023/12/24 01:20:00;;;;;;;4.13;1.80;;;;;;;9.67;55.48;93996.41;4200633;28;20041;-67
2023/12/24 01:22:02;;;;;;;6.57;2.00;;;;;;;9.61;55.05;93994.47;4191986;28;20491;-69
2023/12/24 01:24:04;;;;;;;5.72;2.35;;;;;;;9.59;54.74;94014.72;4208689;28;20059;-66
2023/12/24 01:26:07;;;;;;;5.00;1.75;;;;;;;9.46;54.67;94006.63;4203837;28;20040;-67
2023/12/24 01:28:09;;;;;;;5.13;1.80;;;;;;;9.50;54.06;94000.88;4200987;28;20514;-68
2023/12/24 01:30:11;;;;;;;3.22;1.48;;;;;;;9.61;53.77;94007.53;4197478;28;20565;-69
2023/12/24 01:32:13;;;;;;;5.60;1.85;;;;;;;9.62;53.68;94003.94;4197215;28;20174;-67
2023/12/24 01:34:14;;;;;;;6.35;1.77;;;;;;;9.58;53.98;94013.94;4196652;28;20045;-67
2023/12/24 01:36:16;;;;;;;4.35;1.90;;;;;;;9.55;54.08;94003.81;4179703;28;20172;-68
2023/12/24 01:38:18;;;;;;;2.97;1.67;;;;;;;9.52;53.78;94011.19;4193495;28;20057;-67
2023/12/24 01:40:20;;;;;;;4.85;1.70;;;;;;;9.46;53.29;94014.47;4204856;28;20544;-67
2023/12/24 01:42:22;;;;;;;3.17;1.55;;;;;;;9.34;52.97;94014.03;4177827;28;20469;-67
2023/12/24 01:44:24;;;;;;;2.83;1.50;;;;;;;9.23;52.94;94004.75;4195141;28;20056;-69
2023/12/24 01:46:26;;;;;;;3.33;1.58;;;;;;;9.20;53.37;94012.91;4195323;28;20071;-67
2023/12/24 01:48:28;;;;;;;4.00;1.60;;;;;;;9.21;53.49;94015.34;4193318;28;20163;-68
2023/12/24 01:50:32;;;;;;;3.75;1.88;;;;;;;9.19;53.90;94004.25;4194640;28;20048;-69
2023/12/24 01:52:34;;;;;;;3.22;1.60;;;;;;;9.25;53.67;94008.00;4205549;28;20491;-67
2023/12/24 01:54:35;;;;;;;3.47;1.60;;;;;;;9.31;53.73;94009.94;4185829;28;20051;-68
2023/12/24 01:56:39;;;;;;;4.88;1.73;;;;;;;9.35;54.04;94013.03;4203201;28;20056;-68
2023/12/24 01:58:41;;;;;;;6.03;1.92;;;;;;;9.37;54.03;94018.91;4199712;28;20052;-67
2023/12/24 02:00:43;;;;;;;4.78;1.88;;;;;;;9.39;54.17;94027.41;4190071;28;20054;-68
2023/12/24 02:02:45;;;;;;;4.45;2.25;;;;;;;9.30;53.79;94031.84;4179608;28;20048;-68
2023/12/24 02:04:48;;;;;;;4.15;2.00;;;;;;;9.33;53.80;94033.28;4182444;28;20123;-68
2023/12/24 02:06:50;;;;;;;3.88;1.88;;;;;;;9.24;53.61;94027.28;4183983;28;20048;-68
2023/12/24 02:08:55;;;;;;;4.72;1.95;;;;;;;9.31;53.63;94030.84;4207388;28;20484;-67
2023/12/24 02:10:57;;;;;;;2.90;1.58;;;;;;;9.36;53.58;94031.16;4172678;28;20100;-69
2023/12/24 02:12:59;;;;;;;4.07;1.85;;;;;;;9.38;53.59;94049.31;4191139;28;20059;-70
2023/12/24 02:15:01;;;;;;;5.93;1.90;;;;;;;9.27;53.46;94047.84;4188461;28;20045;-67
2023/12/24 02:17:04;;;;;;;4.53;1.58;;;;;;;9.28;54.01;94046.06;4200738;28;20070;-67
2023/12/24 02:19:09;;;;;;;3.75;1.50;;;;;;;9.31;53.49;94043.09;4197325;28;21289;-66
2023/12/24 02:21:11;;;;;;;5.10;1.73;;;;;;;9.33;53.25;94041.13;4181419;28;20400;-70
2023/12/24 02:23:13;;;;;;;4.28;2.00;;;;;;;9.28;53.51;94044.25;4202056;28;20045;-68
2023/12/24 02:25:15;;;;;;;4.13;1.88;;;;;;;9.26;52.94;94048.03;4192107;28;20044;-68
2023/12/24 02:27:20;;;;;;;3.25;1.70;;;;;;;9.20;53.94;94059.94;4194319;28;20123;-68
2023/12/24 02:29:32;;;;;;;3.50;1.63;;;;;;;9.21;54.28;94053.75;4203457;28;20392;-68
2023/12/24 02:31:37;;;;;;;5.53;1.70;;;;;;;9.10;53.72;94049.69;4184527;28;20147;-67
2023/12/24 02:33:43;;;;;;;3.58;1.85;;;;;;;9.19;53.50;94040.03;4188881;28;20055;-67
2023/12/24 02:35:46;;;;;;;3.35;1.70;;;;;;;9.14;53.55;94042.31;4198446;28;20441;-67
2023/12/24 02:37:48;;;;;;;3.42;1.73;;;;;;;9.13;52.70;94041.50;4181804;28;20124;-68
2023/12/24 02:39:50;;;;;;;5.40;1.35;;;;;;;9.15;52.97;94047.38;4195560;28;20048;-67
2023/12/24 02:41:52;;;;;;;2.40;1.30;;;;;;;9.15;52.67;94054.41;4176615;28;20055;-71
2023/12/24 02:43:53;;;;;;;4.35;1.60;;;;;;;9.16;52.76;94056.03;4195581;28;20511;-66
2023/12/24 02:45:55;;;;;;;2.30;1.50;;;;;;;9.17;52.17;94062.91;4203591;28;20408;-70
2023/12/24 02:47:57;;;;;;;2.55;1.33;;;;;;;9.15;52.48;94070.09;4208596;28;20055;-66
2023/12/24 02:49:59;;;;;;;2.75;1.20;;;;;;;9.13;52.42;94066.81;4202828;28;20082;-67
2023/12/24 02:52:01;;;;;;;2.58;1.30;;;;;;;9.13;52.04;94066.81;4201025;28;20073;-69
2023/12/24 02:54:03;;;;;;;2.75;1.50;;;;;;;9.10;51.88;94067.97;4201305;28;20226;-67
2023/12/24 02:56:05;;;;;;;2.55;1.27;;;;;;;9.07;53.02;94083.16;4193164;28;20190;-68
2023/12/24 02:58:07;;;;;;;2.80;1.45;;;;;;;9.07;52.19;94073.50;4204290;28;20055;-68
2023/12/24 03:00:09;;;;;;;2.75;1.30;;;;;;;9.10;52.20;94078.44;4189982;28;20045;-68
2023/12/24 03:02:13;;;;;;;2.53;1.30;;;;;;;9.12;52.15;94076.47;4210245;28;20256;-68
2023/12/24 03:04:16;;;;;;;2.63;1.55;;;;;;;9.12;52.56;94080.84;4188147;28;20052;-67
2023/12/24 03:06:17;;;;;;;3.45;1.75;;;;;;;8.99;52.26;94071.75;4204627;28;20044;-68
2023/12/24 03:08:21;;;;;;;2.92;1.42;;;;;;;9.02;52.74;94076.63;4208124;28;20058;-69
2023/12/24 03:10:23;;;;;;;3.08;1.60;;;;;;;9.04;52.30;94075.66;4204156;28;20040;-69
2023/12/24 03:12:24;;;;;;;3.30;1.40;;;;;;;9.03;52.16;94085.28;4191327;28;20048;-67
2023/12/24 03:14:26;;;;;;;2.53;1.45;;;;;;;9.02;52.90;94101.94;4208866;28;20055;-68
2023/12/24 03:16:28;;;;;;;3.05;1.70;;;;;;;9.10;52.07;94101.09;4207612;28;20052;-69
2023/12/24 03:18:30;;;;;;;4.70;1.60;;;;;;;9.14;51.49;94102.41;4202988;28;20175;-68
2023/12/24 03:20:32;;;;;;;2.47;1.45;;;;;;;9.11;52.30;94097.53;4206172;28;20552;-66
2023/12/24 03:22:34;;;;;;;2.90;1.65;;;;;;;9.10;52.29;94101.94;4202687;28;20526;-67
2023/12/24 03:24:36;;;;;;;3.17;1.60;;;;;;;9.16;52.31;94100.44;4204590;28;20551;-68
2023/12/24 03:26:37;;;;;;;2.78;1.50;;;;;;;9.11;51.89;94103.56;4185137;28;20041;-66
2023/12/24 03:28:39;;;;;;;2.72;1.73;;;;;;;9.06;52.71;94110.28;4206426;28;20058;-67
2023/12/24 03:30:42;;;;;;;2.65;1.50;;;;;;;9.12;52.25;94117.44;4203655;28;20491;-68
2023/12/24 03:32:43;;;;;;;3.33;1.80;;;;;;;9.17;52.13;94108.13;4207839;28;20063;-67
2023/12/24 03:34:45;;;;;;;3.00;1.65;;;;;;;9.11;52.31;94124.47;4208856;28;20130;-68
2023/12/24 03:36:47;;;;;;;5.03;1.50;;;;;;;9.09;52.45;94129.03;4193524;28;20057;-67
2023/12/24 03:38:49;;;;;;;3.22;1.77;;;;;;;9.07;52.46;94124.97;4199153;28;20052;-68
2023/12/24 03:40:51;;;;;;;3.15;1.73;;;;;;;9.14;52.04;94139.84;4206845;28;20123;-67
2023/12/24 03:42:52;;;;;;;3.67;1.60;;;;;;;9.18;52.83;94137.69;4202164;28;20131;-66
2023/12/24 03:44:55;;;;;;;3.55;1.60;;;;;;;8.95;52.57;94148.81;4200785;28;20055;-67
2023/12/24 03:46:56;;;;;;;3.10;1.52;;;;;;;8.91;52.85;94152.72;4196620;28;20179;-68
2023/12/24 03:48:58;;;;;;;3.25;1.65;;;;;;;8.98;52.54;94165.94;4193874;28;20051;-67
2023/12/24 03:51:00;;;;;;;3.95;1.80;;;;;;;9.00;52.88;94162.19;4197899;28;20220;-67
2023/12/24 03:53:02;;;;;;;3.40;1.60;;;;;;;8.87;53.39;94169.69;4209089;28;20101;-68
2023/12/24 03:55:04;;;;;;;3.38;1.88;;;;;;;8.99;53.59;94170.19;4189414;28;20045;-68
2023/12/24 03:57:06;;;;;;;3.17;1.60;;;;;;;9.00;52.90;94161.38;4199048;28;20157;-68
2023/12/24 03:59:08;;;;;;;2.22;1.67;;;;;;;9.05;51.97;94171.34;4195156;28;20482;-68
2023/12/24 04:01:10;;;;;;;3.40;1.98;;;;;;;9.02;52.67;94172.47;4179951;28;20045;-69
2023/12/24 04:03:12;;;;;;;3.47;2.00;;;;;;;9.09;52.23;94178.69;4195984;28;20045;-67
2023/12/24 04:05:14;;;;;;;3.97;1.70;;;;;;;9.17;52.19;94185.72;4191462;28;20446;-67
2023/12/24 04:07:16;;;;;;;3.58;1.90;;;;;;;9.18;52.43;94190.78;4194173;28;20096;-68
2023/12/24 04:09:18;;;;;;;3.03;1.90;;;;;;;8.94;52.93;94207.25;4188339;28;20048;-67
2023/12/24 04:11:20;;;;;;;3.97;2.40;;;;;;;8.92;53.40;94196.13;4203091;28;20467;-68
2023/12/24 04:13:21;;;;;;;5.10;2.45;;;;;;;8.93;53.56;94205.63;4198540;28;20143;-66
2023/12/24 04:15:23;;;;;;;3.42;2.20;;;;;;;8.98;53.39;94212.97;4201229;28;20048;-68
2023/12/24 04:17:25;;;;;;;4.10;2.03;;;;;;;8.94;53.46;94209.03;4203747;28;20156;-67
2023/12/24 04:19:27;;;;;;;3.45;2.10;;;;;;;8.90;53.65;94221.59;4204365;28;20084;-68
2023/12/24 04:21:33;;;;;;;3.65;1.90;;;;;;;8.97;53.51;94225.22;4210564;28;20055;-68
2023/12/24 04:23:34;;;;;;;3.00;1.85;;;;;;;9.03;53.27;94218.53;4211637;28;20052;-67
2023/12/24 04:25:36;;;;;;;3.63;1.98;;;;;;;9.06;53.46;94213.00;4202482;28;20102;-67
2023/12/24 04:27:38;;;;;;;3.97;1.95;;;;;;;9.10;53.67;94216.06;4199879;28;20061;-70
2023/12/24 04:29:40;;;;;;;3.33;2.00;;;;;;;9.00;53.37;94214.44;4209452;28;20054;-69
2023/12/24 04:31:42;;;;;;;4.13;2.03;;;;;;;8.98;53.60;94207.75;4189269;28;20094;-68
2023/12/24 04:33:44;;;;;;;5.45;1.90;;;;;;;9.06;53.83;94220.03;4206466;28;20078;-67
2023/12/24 04:35:46;;;;;;;3.63;1.80;;;;;;;9.10;53.72;94218.69;4205530;28;20459;-71
2023/12/24 04:37:47;;;;;;;4.60;2.10;;;;;;;9.12;53.97;94219.34;4194884;28;20048;-68
2023/12/24 04:39:49;;;;;;;4.00;2.22;;;;;;;9.07;53.52;94214.59;4204883;28;20167;-67
2023/12/24 04:41:51;;;;;;;2.40;1.70;;;;;;;9.06;53.51;94215.59;4209832;28;20572;-69
2023/12/24 04:43:53;;;;;;;3.67;1.83;;;;;;;9.07;53.62;94213.78;4209447;28;20052;-70
2023/12/24 04:45:54;;;;;;;3.65;2.00;;;;;;;9.03;53.76;94210.69;4207517;28;20040;-67
2023/12/24 04:47:58;;;;;;;2.75;1.63;;;;;;;9.11;53.97;94236.81;4193233;28;20108;-68
2023/12/24 04:50:00;;;;;;;;;;;;;;;9.10;53.98;94216.91;4201475;28;20052;-68
2023/12/24 04:52:02;;;;;;;4.97;2.00;;;;;;;9.14;53.57;94215.63;4206706;28;20342;-67
2023/12/24 04:54:04;;;;;;;4.43;1.70;;;;;;;9.12;54.12;94212.34;4208138;28;20202;-68
2023/12/24 04:56:06;;;;;;;2.72;1.70;;;;;;;9.09;53.89;94225.72;4209904;28;20337;-67
2023/12/24 04:58:08;;;;;;;2.85;1.70;;;;;;;9.12;53.12;94222.81;4183093;28;20103;-69
2023/12/24 05:00:10;;;;;;;2.67;1.50;;;;;;;9.11;53.45;94223.75;4207382;28;20044;-68
2023/12/24 05:02:12;;;;;;;2.13;1.30;;;;;;;9.24;53.33;94228.50;4196117;28;20472;-67
2023/12/24 05:04:14;;;;;;;2.28;1.38;;;;;;;9.29;52.66;94231.47;4185418;28;20081;-69
2023/12/24 05:06:16;;;;;;;2.13;1.20;;;;;;;9.40;52.56;94225.91;4203371;28;20048;-69
2023/12/24 05:08:17;;;;;;;2.75;1.50;;;;;;;9.40;52.37;94246.84;4185448;28;20064;-68
2023/12/24 05:10:19;;;;;;;3.38;1.48;;;;;;;9.33;52.43;94250.25;4187141;28;20053;-68
2023/12/24 05:12:21;;;;;;;2.63;1.38;;;;;;;9.32;52.69;94254.66;4196174;28;20053;-68
2023/12/24 05:14:23;;;;;;;5.63;2.10;;;;;;;9.33;53.36;94256.28;4205231;28;20048;-69
2023/12/24 05:16:25;;;;;;;6.03;1.83;;;;;;;9.25;53.59;94253.69;4195912;28;20056;-69
2023/12/24 05:18:27;;;;;;;3.08;1.80;;;;;;;9.30;53.10;94261.03;4195483;28;20131;-69
2023/12/24 05:20:28;;;;;;;4.47;2.13;;;;;;;9.20;53.58;94266.41;4201497;28;20475;-68
2023/12/24 05:22:30;;;;;;;2.65;1.60;;;;;;;9.19;52.89;94272.63;4200939;28;20064;-70
2023/12/24 05:24:32;;;;;;;2.97;1.48;;;;;;;9.15;53.27;94277.34;4198208;28;20063;-69
2023/12/24 05:26:34;;;;;;;2.72;1.33;;;;;;;9.19;53.01;94273.44;4197296;28;20551;-69
2023/12/24 05:28:36;;;;;;;2.05;1.30;;;;;;;9.16;53.34;94284.22;4205546;28;20372;-69
2023/12/24 05:30:38;;;;;;;1.90;1.17;;;;;;;9.18;53.15;94276.19;4200201;28;20123;-69
2023/12/24 05:32:40;;;;;;;2.28;1.30;;;;;;;9.11;53.38;94288.28;4187998;28;20293;-69
2023/12/24 05:34:42;;;;;;;1.90;1.17;;;;;;;9.24;53.59;94257.25;4205053;28;20440;-68
2023/12/24 05:36:45;;;;;;;1.67;1.10;;;;;;;9.34;52.74;94262.34;4202720;28;20077;-68
2023/12/24 05:38:46;;;;;;;2.00;1.27;;;;;;;9.27;52.66;94254.34;4197799;28;20446;-69
2023/12/24 05:40:48;;;;;;;2.08;1.42;;;;;;;9.28;52.47;94258.56;4203430;28;20049;-69
2023/12/24 05:42:50;;;;;;;1.98;1.05;;;;;;;9.10;53.34;94268.34;4192545;28;20131;-68
2023/12/24 05:44:52;;;;;;;2.38;1.30;;;;;;;9.03;53.68;94276.00;4188765;28;20052;-69
2023/12/24 05:46:54;;;;;;;2.40;1.20;;;;;;;9.17;53.43;94277.19;4185154;28;20040;-70
2023/12/24 05:48:56;;;;;;;3.47;1.50;;;;;;;9.26;53.10;94275.41;4208937;28;20479;-68
2023/12/24 05:50:57;;;;;;;2.67;1.38;;;;;;;9.19;53.44;94275.22;4185547;28;20116;-71
2023/12/24 05:52:59;;;;;;;2.67;1.33;;;;;;;9.25;53.04;94264.13;4190912;28;20048;-69
2023/12/24 05:55:01;;;;;;;3.08;1.63;;;;;;;9.27;53.31;94259.56;4207959;28;20052;-70
2023/12/24 05:57:03;;;;;;;2.58;1.33;;;;;;;9.25;53.24;94251.06;4205625;28;20051;-70
2023/12/24 05:59:05;;;;;;;2.20;1.30;;;;;;;9.25;53.61;94253.69;4210587;28;20047;-70
2023/12/24 06:01:07;;;;;;;2.20;1.30;;;;;;;9.31;53.33;94257.44;4191919;28;20078;-69
2023/12/24 06:03:09;;;;;;;2.22;1.50;;;;;;;9.23;53.08;94251.22;4205215;28;20450;-66
2023/12/24 06:05:11;;;;;;;4.97;1.83;;;;;;;9.29;53.33;94251.53;4183469;28;20177;-69
2023/12/24 06:07:13;;;;;;;3.33;1.50;;;;;;;9.22;53.78;94260.03;4209957;28;20609;-70
2023/12/24 06:09:15;;;;;;;3.60;1.60;;;;;;;9.26;53.34;94264.94;4210084;28;20380;-69
2023/12/24 06:11:17;;;;;;;5.63;1.83;;;;;;;9.25;53.40;94274.59;4201114;28;20072;-69
2023/12/24 06:13:19;;;;;;;3.60;1.85;;;;;;;9.30;52.99;94266.25;4182441;28;20048;-69
2023/12/24 06:15:21;;;;;;;5.88;1.70;;;;;;;9.32;53.45;94265.13;4209757;28;20430;-67
2023/12/24 06:17:23;;;;;;;3.70;1.73;;;;;;;9.36;53.02;94269.06;4208114;28;20052;-68
2023/12/24 06:19:24;;;;;;;4.25;1.60;;;;;;;9.34;52.60;94268.38;4209520;28;20100;-69
2023/12/24 06:21:26;;;;;;;3.83;1.70;;;;;;;9.32;52.75;94272.16;4187485;28;20076;-67
2023/12/24 06:23:28;;;;;;;2.40;1.48;;;;;;;9.30;52.46;94274.91;4204742;28;20516;-69
2023/12/24 06:25:30;;;;;;;2.08;1.20;;;;;;;9.23;53.45;94285.19;4188203;28;20101;-69
2023/12/24 06:27:34;;;;;;;2.28;1.40;;;;;;;9.27;52.81;94282.25;4196386;28;20090;-69
2023/12/24 06:29:36;;;;;;;;;;;;;;;9.23;53.22;94302.69;4198912;28;20084;-67
2023/12/24 06:31:38;;;;;;;2.25;1.38;;;;;;;9.31;52.64;94289.59;4202887;28;19920;-68
2023/12/24 06:33:40;;;;;;;3.05;1.45;;;;;;;9.18;52.69;94289.25;4189953;28;20570;-69
2023/12/24 06:35:42;;;;;;;2.30;1.50;;;;;;;9.17;53.46;94274.56;4205718;28;20125;-70
2023/12/24 06:37:43;;;;;;;2.20;1.30;;;;;;;9.23;53.38;94274.75;4204961;28;20044;-70
2023/12/24 06:39:45;;;;;;;3.25;1.40;;;;;;;9.30;53.23;94272.31;4197589;28;20550;-68
2023/12/24 06:41:47;;;;;;;1.92;1.15;;;;;;;9.33;52.92;94276.38;4207128;28;20052;-67
2023/12/24 06:43:50;;;;;;;2.58;1.27;;;;;;;9.37;52.68;94280.31;4208865;28;20445;-70
2023/12/24 06:45:52;;;;;;;2.15;1.23;;;;;;;9.46;52.49;94286.38;4189613;28;20077;-70
2023/12/24 06:47:53;;;;;;;3.20;1.10;;;;;;;9.51;52.07;94294.56;4209184;28;20129;-71
2023/12/24 06:49:55;;;;;;;2.63;1.02;;;;;;;9.45;52.69;94305.66;4201374;28;20102;-69
2023/12/24 06:51:57;;;;;;;2.40;1.30;;;;;;;9.42;52.35;94323.31;4188561;28;20131;-68
2023/12/24 06:53:59;;;;;;;2.97;1.38;;;;;;;9.51;52.25;94328.56;4195342;28;20295;-68
2023/12/24 06:56:01;;;;;;;3.45;1.52;;;;;;;9.54;52.10;94325.59;4202205;28;20074;-68
2023/12/24 06:58:03;;;;;;;4.05;1.52;;;;;;;9.54;51.99;94329.03;4183030;28;20087;-68
2023/12/24 07:00:05;;;;;;;2.70;1.67;;;;;;;9.51;52.16;94331.16;4209568;28;20136;-68
2023/12/24 07:02:08;;;;;;;3.90;1.30;;;;;;;9.51;51.96;94357.31;4209394;28;20105;-70
2023/12/24 07:04:10;;;;;;;2.03;1.40;;;;;;;9.46;52.33;94336.03;4198678;28;20499;-68
2023/12/24 07:06:12;;;;;;;2.80;1.00;;;;;;;9.52;52.34;94344.06;4204049;28;20667;-69
2023/12/24 07:08:14;;;;;;;2.83;1.27;;;;;;;9.65;52.24;94338.34;4206538;28;20522;-69
2023/12/24 07:10:16;;;;;;;3.03;1.35;;;;;;;9.67;51.52;94344.25;4202897;28;20058;-70
2023/12/24 07:12:18;;;;;;;4.47;1.50;;;;;;;9.80;51.70;94341.97;4196791;28;20456;-69
2023/12/24 07:14:19;;;;;;;2.50;1.35;;;;;;;9.86;51.50;94335.28;4196828;28;20080;-68
2023/12/24 07:16:23;;;;;;;5.32;1.70;;;;;;;9.84;51.14;94353.72;4208372;28;20051;-68
2023/12/24 07:18:25;;;;;;;3.42;1.60;;;;;;;9.92;50.66;94355.56;4208489;28;20101;-69
2023/12/24 07:20:27;;;;;;;2.47;1.45;;;;;;;10.02;50.83;94350.13;4205524;28;20083;-70
2023/12/24 07:22:29;;;;;;;3.00;1.65;;;;;;;10.08;50.98;94339.00;4209816;28;20108;-69
2023/12/24 07:24:31;;;;;;;5.07;1.80;;;;;;;10.02;50.46;94344.91;4204151;28;20272;-72
2023/12/24 07:26:33;;;;;;;3.35;1.83;;;;;;;10.07;50.99;94347.03;4194390;28;20055;-69
2023/12/24 07:28:35;;;;;;;4.50;2.13;;;;;;;10.00;50.89;94355.56;4197914;28;20396;-71
2023/12/24 07:30:37;;;;;;;3.55;2.03;;;;;;;10.01;50.82;94351.94;4199770;28;20058;-70
2023/12/24 07:32:45;;;;;;;3.72;2.25;;;;;;;9.99;50.72;94350.47;4212842;28;20077;-69
2023/12/24 07:34:47;;;;;;;2.95;1.70;;;;;;;10.03;50.23;94357.03;4208843;28;20044;-70
2023/12/24 07:36:49;;;;;;;2.40;1.52;;;;;;;10.05;50.30;94355.06;4198748;28;20056;-69
2023/12/24 07:38:51;;;;;;;2.63;1.27;;;;;;;10.18;49.96;94368.47;4209547;28;20043;-69
2023/12/24 07:40:52;;;;;;;3.30;1.48;;;;;;;10.23;50.10;94374.00;4204272;28;20105;-68
2023/12/24 07:42:57;;;;;;;2.65;1.42;;;;;;;10.29;49.60;94372.56;4205034;28;20542;-70
2023/12/24 07:44:59;;;;;;;3.40;1.30;;;;;;;10.38;49.61;94376.81;4204653;28;20131;-69
2023/12/24 07:47:01;;;;;;;2.08;1.10;;;;;;;10.41;49.58;94359.94;4196223;28;20094;-69
2023/12/24 07:49:03;;;;;;;2.63;1.55;;;;;;;10.34;49.32;94356.38;4210474;28;20078;-69
2023/12/24 07:51:04;;;;;;;2.35;1.38;;;;;;;10.41;49.49;94349.47;4201713;28;20089;-69
2023/12/24 07:53:07;;;;;;;2.40;1.13;;;;;;;10.45;49.08;94341.16;4203894;28;20294;-68
2023/12/24 07:55:09;;;;;;;3.22;1.33;;;;;;;10.60;49.16;94343.91;4208750;28;20417;-69
2023/12/24 07:57:11;;;;;;;4.22;1.33;;;;;;;10.69;48.57;94349.09;4203506;28;20510;-69
2023/12/24 07:59:12;;;;;;;2.42;1.35;;;;;;;10.63;48.60;94354.03;4210844;28;20079;-69
2023/12/24 08:01:14;;;;;;;3.47;1.60;;;;;;;10.70;48.63;94362.03;4203743;28;20044;-69
2023/12/24 08:03:16;;;;;;;3.80;1.30;;;;;;;10.68;48.05;94365.81;4194311;28;20075;-69
2023/12/24 08:05:18;;;;;;;4.57;1.30;;;;;;;10.74;48.29;94378.25;4204117;28;20052;-71
2023/12/24 08:07:21;;;;;;;2.75;1.25;;;;;;;10.69;48.22;94375.28;4210015;28;20475;-70
2023/12/24 08:09:23;;;;;;;3.35;1.10;;;;;;;10.62;48.17;94370.72;4203098;28;20080;-69
2023/12/24 08:11:25;;;;;;;2.25;1.10;;;;;;;10.68;48.60;94381.53;4203876;28;20074;-68
2023/12/24 08:13:27;;;;;;;3.47;1.10;;;;;;;10.71;48.06;94368.91;4206879;28;20400;-69
2023/12/24 08:15:29;;;;;;;2.00;1.00;;;;;;;10.79;47.83;94353.16;4199586;28;20163;-70
2023/12/24 08:17:31;;;;;;;1.90;0.80;;;;;;;10.86;47.70;94333.16;4200383;28;20531;-69
2023/12/24 08:19:33;;;;;;;1.75;1.00;;;;;;;10.97;47.10;94334.59;4210257;28;20059;-69
2023/12/24 08:21:34;;;;;;;3.55;1.48;;;;;;;11.00;47.20;94352.59;4207001;28;20220;-70
2023/12/24 08:23:37;;;;;;;2.20;0.93;;;;;;;11.11;46.64;94342.72;4201154;28;20052;-70
2023/12/24 08:25:40;;;;;;;1.92;0.95;;;;;;;11.09;46.60;94340.25;4178329;28;20059;-70
2023/12/24 08:27:41;;;;;;;4.65;1.20;;;;;;;11.17;46.75;94340.22;4202887;28;20445;-70
2023/12/24 08:29:43;;;;;;;5.10;1.40;;;;;;;11.25;46.44;94321.03;4186172;28;20064;-70
2023/12/24 08:31:45;;;;;;;2.42;1.20;;;;;;;11.33;46.87;94313.09;4209465;28;20054;-70
2023/12/24 08:33:47;;;;;;;3.35;1.83;;;;;;;11.43;46.20;94316.31;4209378;28;20044;-69
2023/12/24 08:35:49;;;;;;;3.92;2.10;;;;;;;11.45;46.18;94321.41;4207261;28;20154;-70
2023/12/24 08:37:51;;;;;;;3.65;1.52;;;;;;;11.56;45.53;94326.25;4208600;28;20055;-68
2023/12/24 08:39:53;;;;;;;2.50;1.38;;;;;;;11.71;45.67;94330.75;4205346;28;20626;-69
2023/12/24 08:41:55;;;;;;;3.13;1.77;;;;;;;11.83;45.48;94338.03;4209140;28;20044;-69
2023/12/24 08:43:58;;;;;;;5.10;2.25;;;;;;;11.92;45.47;94336.19;4208248;28;20503;-70
2023/12/24 08:46:03;;;;;;;2.80;1.35;;;;;;;11.91;44.77;94341.63;4202250;28;20048;-70
2023/12/24 08:48:05;;;;;;;7.30;2.47;;;;;;;11.75;45.61;94345.97;4211407;28;20044;-69
2023/12/24 08:50:07;;;;;;;4.60;1.83;;;;;;;11.95;44.82;94335.84;4200352;28;20048;-69
2023/12/24 08:52:10;;;;;;;5.38;1.60;;;;;;;12.26;44.56;94335.75;4208815;28;20048;-71
2023/12/24 08:54:11;;;;;;;3.17;1.65;;;;;;;12.44;44.24;94337.22;4180908;28;20050;-70
2023/12/24 08:56:13;;;;;;;3.55;1.40;;;;;;;12.33;44.26;94342.91;4196727;28;20507;-70
2023/12/24 08:58:15;;;;;;;5.03;1.70;;;;;;;12.40;44.61;94346.44;4196670;28;20122;-72
2023/12/24 09:00:18;;;;;;;2.42;1.50;;;;;;;12.48;44.02;94346.38;4201403;28;20110;-70
2023/12/24 09:02:19;;;;;;;3.08;1.30;;;;;;;12.43;44.01;94344.28;4199244;28;20060;-72
2023/12/24 09:04:21;;;;;;;2.33;1.17;;;;;;;12.57;43.81;94337.41;4186059;28;20059;-71
2023/12/24 09:06:23;;;;;;;3.08;1.55;;;;;;;12.70;44.21;94342.03;4202582;28;20098;-71
2023/12/24 09:08:25;;;;;;;2.22;1.20;;;;;;;12.84;43.10;94335.97;4210719;28;20052;-68
2023/12/24 09:10:27;;;;;;;2.78;1.10;;;;;;;12.95;42.95;94353.13;4191668;28;20048;-70
2023/12/24 09:12:29;;;;;;;2.70;1.20;;;;;;;12.97;43.19;94348.50;4204159;28;20098;-69
2023/12/24 09:14:31;;;;;;;2.45;1.40;;;;;;;12.72;43.12;94344.50;4185269;28;20052;-70
2023/12/24 09:16:32;;;;;;;2.05;1.25;;;;;;;12.76;43.42;94338.69;4201124;28;20080;-70
2023/12/24 09:18:34;;;;;;;2.20;0.90;;;;;;;12.74;42.79;94326.75;4199768;28;20462;-70
2023/12/24 09:20:36;;;;;;;2.78;1.23;;;;;;;12.79;43.06;94348.03;4205360;28;20091;-69
2023/12/24 09:22:38;;;;;;;2.38;1.10;;;;;;;12.76;42.56;94341.31;4202328;28;20425;-70
2023/12/24 09:24:41;;;;;;;2.75;0.95;;;;;;;12.82;42.46;94353.75;4203271;28;20048;-69
2023/12/24 09:26:43;;;;;;;2.65;1.00;;;;;;;12.74;42.72;94347.75;4199515;28;20134;-69
2023/12/24 09:28:45;;;;;;;2.95;1.25;;;;;;;12.80;42.62;94347.84;4199639;28;20102;-70
2023/12/24 09:30:46;;;;;;;2.50;1.20;;;;;;;12.98;42.48;94350.09;4204242;28;20536;-67
2023/12/24 09:32:48;;;;;;;2.50;1.15;;;;;;;13.11;41.91;94339.75;4192078;28;20052;-70
2023/12/24 09:34:50;;;;;;;3.28;1.58;;;;;;;13.41;41.64;94337.09;4188806;28;20110;-70
2023/12/24 09:36:52;;;;;;;2.95;1.30;;;;;;;13.48;41.69;94343.25;4189883;28;20627;-71
2023/12/24 09:38:55;;;;;;;8.15;1.45;;;;;;;13.42;41.87;94337.91;4203677;28;20098;-70